Time;durP1;ratioP1;P1;durP2;ratioP2;P2;SDS_P1;SDS_P2;PMS_P1;PMS_P2;Temp;Humidity;BMP_temperature;BMP_pressure;BME280_temperature;BME280_humidity;BME280_pressure;Samples;Min_cycle;Max_cycle;Signal;HPM_P1;HPM_P2
2023/05/28 00:01:32;;;;;;;6.73;4.23;;;16.10;69.00;;;;;;4947787;28;20239;-64
2023/05/28 00:03:57;;;;;;;5.77;4.47;;;16.00;68.70;;;;;;4950787;28;20519;-64
2023/05/28 00:06:23;;;;;;;6.53;4.67;;;16.00;69.20;;;;;;4947999;28;20673;-64
2023/05/28 00:08:49;;;;;;;8.70;4.77;;;15.90;70.10;;;;;;4942551;28;20226;-69
2023/05/28 00:11:14;;;;;;;5.77;4.13;;;15.90;69.50;;;;;;4948693;28;20827;-64
2023/05/28 00:13:40;;;;;;;8.00;4.87;;;15.80;70.20;;;;;;4948344;28;20408;-66
2023/05/28 00:16:05;;;;;;;6.67;4.13;;;15.70;70.40;;;;;;4943176;28;20274;-63
2023/05/28 00:18:31;;;;;;;7.70;4.37;;;15.70;69.90;;;;;;4943466;28;20216;-63
2023/05/28 00:20:56;;;;;;;8.30;4.63;;;15.60;70.30;;;;;;4945716;28;20206;-63
2023/05/28 00:23:22;;;;;;;5.93;4.60;;;15.50;70.90;;;;;;4947231;28;20233;-63
2023/05/28 00:25:48;;;;;;;5.90;4.17;;;15.40;71.40;;;;;;4947532;28;20256;-63
2023/05/28 00:28:13;;;;;;;9.87;5.17;;;15.40;71.70;;;;;;4949845;28;20766;-63
2023/05/28 00:30:39;;;;;;;9.00;5.10;;;15.30;72.50;;;;;;4945154;28;20209;-63
2023/05/28 00:33:04;;;;;;;6.50;5.33;;;15.30;72.70;;;;;;4928169;28;20866;-64
2023/05/28 00:35:30;;;;;;;7.30;5.00;;;15.30;72.90;;;;;;4948112;28;20422;-64
2023/05/28 00:37:55;;;;;;;7.27;5.07;;;15.20;73.20;;;;;;4948575;28;20807;-64
2023/05/28 00:40:21;;;;;;;10.57;4.33;;;15.10;73.70;;;;;;4947774;28;20556;-63
2023/05/28 00:42:47;;;;;;;8.83;5.63;;;15.10;73.80;;;;;;4947983;28;20201;-64
2023/05/28 00:45:12;;;;;;;10.27;5.53;;;15.10;73.80;;;;;;4947148;28;20264;-64
2023/05/28 00:47:39;;;;;;;10.57;6.80;;;15.10;74.00;;;;;;4946791;28;20213;-63
2023/05/28 00:50:10;;;;;;;9.20;5.13;;;15.10;74.80;;;;;;4947652;28;20297;-64
2023/05/28 00:52:36;;;;;;;9.63;5.17;;;15.00;75.00;;;;;;4945386;28;20281;-63
2023/05/28 00:55:06;;;;;;;6.40;5.37;;;14.90;75.60;;;;;;4946572;28;20241;-63
2023/05/28 00:57:32;;;;;;;9.40;5.30;;;14.90;76.00;;;;;;4946665;28;20214;-63
2023/05/28 01:00:05;;;;;;;9.50;5.23;;;14.90;76.50;;;;;;4947573;28;20725;-63
2023/05/28 01:02:31;;;;;;;6.77;5.20;;;14.90;76.90;;;;;;4947549;28;20206;-63
2023/05/28 01:04:56;;;;;;;7.87;5.10;;;14.80;77.00;;;;;;4948248;28;20209;-63
2023/05/28 01:07:22;;;;;;;8.63;5.47;;;14.80;77.10;;;;;;4952886;28;20292;-62
2023/05/28 01:09:48;;;;;;;7.53;4.67;;;14.80;77.90;;;;;;4956366;28;20201;-62
2023/05/28 01:12:13;;;;;;;6.17;4.90;;;14.80;78.30;;;;;;4960556;28;20253;-63
2023/05/28 01:14:39;;;;;;;6.87;4.67;;;14.80;78.80;;;;;;4960262;28;20208;-63
2023/05/28 01:17:06;;;;;;;10.37;5.30;;;14.80;79.00;;;;;;4955657;28;20240;-62
2023/05/28 01:19:31;;;;;;;5.23;3.83;;;14.70;79.70;;;;;;4958212;28;20232;-63
2023/05/28 01:22:04;;;;;;;6.60;5.13;;;14.70;79.90;;;;;;4959546;28;20235;-63
2023/05/28 01:24:32;;;;;;;8.57;5.00;;;14.70;79.80;;;;;;4959871;28;20647;-63
2023/05/28 01:26:58;;;;;;;8.63;5.47;;;14.70;79.80;;;;;;4957968;28;20197;-63
2023/05/28 01:29:24;;;;;;;6.70;5.60;;;14.60;80.30;;;;;;4959980;28;20237;-63
2023/05/28 01:31:49;;;;;;;8.53;4.90;;;14.60;80.50;;;;;;4959095;28;20234;-63
2023/05/28 01:34:16;;;;;;;10.47;4.47;;;14.60;80.90;;;;;;4955233;28;20262;-63
2023/05/28 01:36:51;;;;;;;6.63;4.87;;;14.60;80.80;;;;;;4959754;28;20194;-63
2023/05/28 01:39:19;;;;;;;7.87;4.53;;;14.60;81.40;;;;;;4953288;28;20205;-63
2023/05/28 01:41:45;;;;;;;9.13;4.40;;;14.60;81.60;;;;;;4960369;28;20208;-63
2023/05/28 01:44:14;;;;;;;7.50;5.13;;;14.50;81.90;;;;;;4959576;28;20970;-63
2023/05/28 01:46:41;;;;;;;8.93;4.30;;;14.50;82.60;;;;;;4959775;28;20211;-63
2023/05/28 01:49:09;;;;;;;6.30;4.10;;;14.40;82.60;;;;;;4959695;28;20194;-63
2023/05/28 01:51:34;;;;;;;6.07;4.83;;;14.40;82.90;;;;;;4959934;28;20211;-63
2023/05/28 01:54:00;;;;;;;10.67;5.50;;;14.40;83.60;;;;;;4957833;28;20393;-63
2023/05/28 01:56:26;;;;;;;10.73;5.37;;;14.30;84.20;;;;;;4959416;28;20658;-63
2023/05/28 01:58:51;;;;;;;7.00;4.63;;;14.30;84.40;;;;;;4958397;28;20262;-63
2023/05/28 02:01:33;;;;;;;5.80;4.87;;;14.30;84.80;;;;;;4959898;28;20760;-63
2023/05/28 02:04:00;;;;;;;9.77;6.00;;;14.20;85.20;;;;;;4954187;28;20288;-62
2023/05/28 02:06:28;;;;;;;10.97;5.00;;;14.10;85.90;;;;;;4949409;28;20264;-63
2023/05/28 02:08:54;;;;;;;9.77;4.90;;;14.00;86.60;;;;;;4952505;28;20198;-63
2023/05/28 02:11:21;;;;;;;7.33;4.43;;;14.00;87.10;;;;;;4946692;28;20205;-63
2023/05/28 02:13:48;;;;;;;7.43;4.40;;;13.90;87.80;;;;;;4949123;28;20614;-62
2023/05/28 02:16:17;;;;;;;8.33;4.57;;;13.90;88.20;;;;;;4941394;28;20214;-62
2023/05/28 02:18:49;;;;;;;5.90;4.80;;;13.90;88.50;;;;;;4950377;28;20623;-62
2023/05/28 02:21:17;;;;;;;8.80;5.07;;;13.90;88.70;;;;;;4953094;28;20208;-63
2023/05/28 02:23:44;;;;;;;7.57;5.27;;;13.90;89.20;;;;;;4948345;28;20229;-63
2023/05/28 02:26:10;;;;;;;10.80;5.30;;;13.90;89.50;;;;;;4949399;28;20274;-63
2023/05/28 02:28:35;;;;;;;8.47;4.63;;;13.90;89.70;;;;;;4953476;28;20197;-63
2023/05/28 02:31:01;;;;;;;7.93;5.50;;;13.80;90.10;;;;;;4952962;28;20866;-63
2023/05/28 02:33:26;;;;;;;12.70;5.40;;;13.80;90.40;;;;;;4947064;28;20297;-64
2023/05/28 02:35:52;;;;;;;9.00;4.70;;;13.80;90.60;;;;;;4948389;28;20700;-63
2023/05/28 02:38:18;;;;;;;7.67;4.23;;;13.70;90.70;;;;;;4949262;28;20213;-62
2023/05/28 02:40:43;;;;;;;6.77;4.80;;;13.70;91.00;;;;;;4949685;28;20277;-63
2023/05/28 02:43:09;;;;;;;7.23;5.00;;;13.70;91.70;;;;;;4950443;28;20209;-64
2023/05/28 02:45:34;;;;;;;14.90;5.83;;;13.70;92.00;;;;;;4949629;28;20340;-63
2023/05/28 02:48:00;;;;;;;9.07;5.20;;;13.70;92.50;;;;;;4947136;28;20252;-62
2023/05/28 02:50:25;;;;;;;12.73;5.00;;;13.60;92.40;;;;;;4948840;28;20205;-62
2023/05/28 02:52:50;;;;;;;10.90;5.37;;;13.60;92.90;;;;;;4950031;28;20203;-63
2023/05/28 02:55:16;;;;;;;10.30;5.03;;;13.60;93.40;;;;;;4948033;28;21029;-63
2023/05/28 02:57:41;;;;;;;9.00;5.57;;;13.50;93.60;;;;;;4948001;28;20213;-62
2023/05/28 03:00:11;;;;;;;9.27;5.73;;;13.50;94.80;;;;;;4931069;29;20210;-62
2023/05/28 03:02:36;;;;;;;8.97;4.93;;;13.50;94.50;;;;;;4944353;28;20734;-63
2023/05/28 03:05:02;;;;;;;8.83;5.17;;;13.40;94.80;;;;;;4948230;28;20223;-63
2023/05/28 03:07:31;;;;;;;12.83;5.27;;;13.30;94.70;;;;;;4947457;28;20204;-63
2023/05/28 03:09:57;;;;;;;7.17;5.30;;;13.30;95.70;;;;;;4949327;28;20198;-62
2023/05/28 03:12:23;;;;;;;8.60;5.10;;;13.30;96.30;;;;;;4946995;28;20214;-62
2023/05/28 03:14:49;;;;;;;9.47;5.83;;;13.20;96.90;;;;;;4948594;28;20209;-63
2023/05/28 03:17:15;;;;;;;11.03;6.07;;;13.20;97.40;;;;;;4948600;28;20224;-62
2023/05/28 03:19:40;;;;;;;9.77;6.57;;;13.10;97.90;;;;;;4948540;28;20292;-63
2023/05/28 03:22:06;;;;;;;11.77;6.67;;;13.10;98.80;;;;;;4948163;28;20214;-63
2023/05/28 03:24:31;;;;;;;9.30;5.60;;;13.10;98.80;;;;;;4947173;28;21028;-63
2023/05/28 03:26:59;;;;;;;10.40;5.27;;;13.00;99.20;;;;;;4949694;28;20522;-63
2023/05/28 03:29:24;;;;;;;8.60;6.17;;;12.90;99.60;;;;;;4948238;28;20206;-62
2023/05/28 03:31:50;;;;;;;13.50;6.77;;;12.90;99.90;;;;;;4948939;28;20565;-63
2023/05/28 03:34:15;;;;;;;9.03;6.17;;;12.90;99.90;;;;;;4948966;28;20209;-63
2023/05/28 03:36:41;;;;;;;12.20;6.30;;;12.90;99.90;;;;;;4946826;28;20205;-64
2023/05/28 03:39:08;;;;;;;7.20;5.97;;;12.90;99.90;;;;;;4948175;28;20194;-63
2023/05/28 03:41:34;;;;;;;12.07;7.13;;;12.90;99.90;;;;;;4948393;28;20209;-63
2023/05/28 03:44:00;;;;;;;8.20;5.93;;;12.90;99.90;;;;;;4948278;28;20198;-63
2023/05/28 03:46:25;;;;;;;7.40;5.47;;;12.90;99.90;;;;;;4948495;28;20229;-62
2023/05/28 03:48:51;;;;;;;8.63;5.70;;;12.80;99.90;;;;;;4942093;28;20691;-62
2023/05/28 03:51:16;;;;;;;8.33;5.90;;;12.80;99.90;;;;;;4949447;28;20213;-62
2023/05/28 03:53:42;;;;;;;8.77;6.23;;;12.60;99.90;;;;;;4949143;28;20672;-62
2023/05/28 03:56:07;;;;;;;7.37;5.77;;;12.70;99.90;;;;;;4948636;28;20205;-62
2023/05/28 03:58:33;;;;;;;10.77;6.20;;;12.70;99.90;;;;;;4947933;28;20667;-64
2023/05/28 04:00:59;;;;;;;8.80;6.53;;;12.80;99.90;;;;;;4947816;28;20221;-63
2023/05/28 04:03:25;;;;;;;9.77;6.17;;;12.80;99.90;;;;;;4948144;28;20684;-64
2023/05/28 04:05:51;;;;;;;9.57;6.63;;;12.80;99.90;;;;;;4947810;28;20228;-67
2023/05/28 04:08:17;;;;;;;9.33;7.27;;;12.80;99.90;;;;;;4947898;28;20808;-64
2023/05/28 04:10:43;;;;;;;12.67;7.43;;;12.90;99.90;;;;;;4947793;28;20284;-64
2023/05/28 04:13:08;;;;;;;12.20;6.37;;;12.90;99.90;;;;;;4947697;28;20268;-65
2023/05/28 04:15:34;;;;;;;13.00;6.17;;;12.90;99.90;;;;;;4948258;28;20642;-65
2023/05/28 04:18:00;;;;;;;7.13;5.73;;;13.00;99.90;;;;;;4939314;28;20375;-66
2023/05/28 04:20:29;;;;;;;9.27;6.33;;;13.00;99.90;;;;;;4945690;28;20217;-65
2023/05/28 04:22:54;;;;;;;6.27;5.53;;;13.00;99.90;;;;;;4922077;28;20226;-66
2023/05/28 04:25:20;;;;;;;11.77;6.80;;;13.00;99.90;;;;;;4941253;28;20233;-66
2023/05/28 04:27:46;;;;;;;9.80;6.37;;;13.00;99.90;;;;;;4946939;28;20234;-65
2023/05/28 04:30:12;;;;;;;9.40;5.40;;;13.10;99.90;;;;;;4947569;28;20236;-65
2023/05/28 04:32:40;;;;;;;10.23;6.23;;;13.10;99.90;;;;;;4948067;28;20279;-65
2023/05/28 04:35:08;;;;;;;11.47;6.07;;;13.10;99.90;;;;;;4946292;28;20699;-66
2023/05/28 04:37:36;;;;;;;8.03;5.60;;;13.20;99.90;;;;;;4948055;28;20233;-65
2023/05/28 04:40:03;;;;;;;12.73;6.30;;;13.20;99.90;;;;;;4950266;28;20639;-65
2023/05/28 04:42:29;;;;;;;9.93;6.23;;;13.30;99.90;;;;;;4952297;28;20236;-65
2023/05/28 04:44:55;;;;;;;11.80;5.80;;;13.30;99.90;;;;;;4951902;28;20221;-65
2023/05/28 04:47:22;;;;;;;10.53;5.10;;;13.40;99.90;;;;;;4949745;28;20233;-65
2023/05/28 04:49:48;;;;;;;7.03;5.10;;;13.50;99.90;;;;;;4951469;28;20197;-66
2023/05/28 04:52:14;;;;;;;7.77;6.10;;;13.50;99.90;;;;;;4951073;28;20577;-65
2023/05/28 04:54:39;;;;;;;9.37;6.73;;;13.50;99.90;;;;;;4951294;28;20210;-65
2023/05/28 04:57:05;;;;;;;7.87;5.60;;;13.50;99.90;;;;;;4951129;28;20758;-65
2023/05/28 04:59:31;;;;;;;12.10;5.97;;;13.60;99.90;;;;;;4949191;28;20248;-65
2023/05/28 05:01:58;;;;;;;12.47;5.87;;;13.60;99.90;;;;;;4952041;28;20533;-65
2023/05/28 05:04:24;;;;;;;10.93;6.20;;;13.70;99.90;;;;;;4952523;28;20245;-65
2023/05/28 05:06:50;;;;;;;15.97;6.50;;;13.70;99.90;;;;;;4952839;28;20736;-65
2023/05/28 05:09:15;;;;;;;12.67;6.80;;;13.80;99.90;;;;;;4950411;28;21061;-67
2023/05/28 05:11:41;;;;;;;12.67;5.57;;;13.80;99.90;;;;;;4949278;28;20201;-65
2023/05/28 05:14:06;;;;;;;7.03;5.47;;;13.80;99.90;;;;;;4950774;28;20212;-65
2023/05/28 05:16:32;;;;;;;9.20;5.83;;;13.90;99.90;;;;;;4950871;28;20279;-68
2023/05/28 05:18:58;;;;;;;9.33;5.77;;;14.00;99.90;;;;;;4951154;28;20272;-68
2023/05/28 05:21:24;;;;;;;8.50;5.10;;;14.10;99.90;;;;;;4936568;28;20197;-67
2023/05/28 05:23:50;;;;;;;6.53;4.50;;;14.30;99.90;;;;;;4944794;28;20229;-72
2023/05/28 05:26:18;;;;;;;6.23;5.23;;;14.60;99.90;;;;;;4950896;28;20222;-74
2023/05/28 05:28:44;;;;;;;8.53;4.20;;;14.80;98.20;;;;;;4951196;28;20673;-75
2023/05/28 05:31:13;;;;;;;8.00;4.03;;;14.80;98.00;;;;;;4934616;29;20588;-72
2023/05/28 05:33:42;;;;;;;7.50;4.60;;;14.90;97.60;;;;;;4948820;28;20308;-73
2023/05/28 05:36:09;;;;;;;4.93;4.40;;;15.10;97.70;;;;;;4950074;28;21003;-71
2023/05/28 05:38:35;;;;;;;7.67;3.80;;;15.00;97.20;;;;;;4950210;28;20688;-71
2023/05/28 05:41:01;;;;;;;5.90;4.30;;;14.80;97.00;;;;;;4950463;28;20240;-70
2023/05/28 05:43:26;;;;;;;8.40;4.60;;;14.90;97.00;;;;;;4950351;28;20207;-71
2023/05/28 05:45:52;;;;;;;6.47;4.20;;;14.90;96.90;;;;;;4950183;28;20218;-70
2023/05/28 05:48:17;;;;;;;7.00;4.47;;;15.10;96.80;;;;;;4949502;28;20310;-69
2023/05/28 05:50:54;;;;;;;10.23;4.63;;;15.30;96.40;;;;;;4950105;28;20768;-70
2023/05/28 05:53:21;;;;;;;9.10;4.93;;;15.30;96.50;;;;;;4950218;28;20284;-71
2023/05/28 05:55:47;;;;;;;6.63;4.60;;;15.40;96.70;;;;;;4950066;28;20201;-70
2023/05/28 05:58:13;;;;;;;6.40;4.37;;;15.60;95.60;;;;;;4949786;28;20202;-70
2023/05/28 06:00:39;;;;;;;9.03;4.07;;;15.50;95.50;;;;;;4950177;28;20217;-70
2023/05/28 06:03:06;;;;;;;7.87;5.03;;;15.40;95.50;;;;;;4949810;28;20202;-70
2023/05/28 06:05:32;;;;;;;7.13;4.27;;;15.60;95.20;;;;;;4944919;28;20225;-70
2023/05/28 06:07:57;;;;;;;5.40;4.47;;;15.70;94.60;;;;;;4945207;28;20550;-69
2023/05/28 06:10:23;;;;;;;6.43;3.23;;;15.80;94.70;;;;;;4942063;28;20217;-70
2023/05/28 06:12:48;;;;;;;6.47;4.00;;;15.90;94.10;;;;;;4942571;28;20222;-69
2023/05/28 06:15:14;;;;;;;7.43;3.80;;;15.90;93.70;;;;;;4942615;28;20205;-70
2023/05/28 06:17:41;;;;;;;4.63;3.50;;;16.00;93.10;;;;;;4941066;28;20253;-70
2023/05/28 06:20:07;;;;;;;8.47;3.87;;;16.10;93.40;;;;;;4942119;28;20590;-69
2023/05/28 06:22:33;;;;;;;7.93;3.53;;;16.10;92.40;;;;;;4926416;28;20675;-71
2023/05/28 06:25:00;;;;;;;9.30;3.63;;;16.30;91.80;;;;;;4941016;28;20269;-71
2023/05/28 06:27:26;;;;;;;4.60;3.27;;;16.40;91.20;;;;;;4941026;28;20202;-74
2023/05/28 06:29:51;;;;;;;5.07;3.40;;;16.50;90.30;;;;;;4942357;28;20207;-72
2023/05/28 06:32:17;;;;;;;7.40;3.60;;;16.40;89.00;;;;;;4941393;28;20210;-69
2023/05/28 06:34:43;;;;;;;6.23;3.70;;;16.50;89.50;;;;;;4943167;28;20213;-69
2023/05/28 06:37:08;;;;;;;3.87;2.90;;;16.50;88.60;;;;;;4943546;28;20702;-70
2023/05/28 06:39:34;;;;;;;7.27;3.53;;;16.70;85.80;;;;;;4940749;28;20302;-73
2023/05/28 06:42:00;;;;;;;6.77;3.40;;;16.90;85.20;;;;;;4941699;28;20210;-70
2023/05/28 06:44:26;;;;;;;5.77;2.70;;;17.00;83.00;;;;;;4939010;28;20202;-71
2023/05/28 06:46:51;;;;;;;5.50;3.50;;;17.00;84.80;;;;;;4941426;28;20205;-69
2023/05/28 06:49:17;;;;;;;5.80;3.73;;;17.00;84.80;;;;;;4941184;28;20261;-69
2023/05/28 06:51:42;;;;;;;4.00;3.00;;;16.90;85.80;;;;;;4943072;28;20236;-69
2023/05/28 06:54:08;;;;;;;4.60;3.00;;;16.90;84.80;;;;;;4940987;28;20205;-69
2023/05/28 06:56:34;;;;;;;6.17;3.37;;;17.20;81.70;;;;;;4939015;28;20230;-69
2023/05/28 06:58:59;;;;;;;3.87;2.90;;;17.20;79.90;;;;;;4939342;28;20199;-69
2023/05/28 07:01:25;;;;;;;3.40;3.10;;;17.10;84.40;;;;;;4939277;28;20311;-70
2023/05/28 07:03:57;;;;;;;7.63;3.17;;;17.20;80.50;;;;;;4941350;28;20277;-69
2023/05/28 07:06:22;;;;;;;4.93;3.10;;;17.40;80.80;;;;;;4922970;28;20803;-70
2023/05/28 07:08:48;;;;;;;5.70;3.10;;;17.30;77.80;;;;;;4941369;28;20190;-70
2023/05/28 07:11:14;;;;;;;4.77;2.97;;;17.40;77.70;;;;;;4942788;28;20761;-70
2023/05/28 07:13:40;;;;;;;4.90;2.70;;;17.60;76.70;;;;;;4938644;28;20200;-70
2023/05/28 07:16:06;;;;;;;3.37;2.43;;;17.60;73.70;;;;;;4942054;28;20202;-70
2023/05/28 07:18:32;;;;;;;5.23;2.97;;;17.50;73.00;;;;;;4941382;28;20205;-70
2023/05/28 07:20:58;;;;;;;4.30;3.40;;;17.70;71.90;;;;;;4940338;28;20202;-70
2023/05/28 07:23:23;;;;;;;6.90;3.07;;;17.70;71.40;;;;;;4942351;28;20699;-71
2023/05/28 07:25:49;;;;;;;4.07;2.50;;;17.70;70.60;;;;;;4942866;28;21607;-71
2023/05/28 07:28:15;;;;;;;4.40;2.50;;;17.50;70.40;;;;;;4941045;28;20205;-71
2023/05/28 07:30:42;;;;;;;7.90;2.60;;;17.60;70.70;;;;;;4939591;28;20198;-70
2023/05/28 07:33:08;;;;;;;3.93;2.77;;;17.70;69.80;;;;;;4942927;28;20205;-73
2023/05/28 07:35:33;;;;;;;4.73;2.80;;;17.70;71.30;;;;;;4942679;28;20774;-69
2023/05/28 07:38:00;;;;;;;3.40;2.37;;;18.00;71.00;;;;;;4942903;28;20210;-70
2023/05/28 07:40:25;;;;;;;6.33;2.20;;;18.20;69.20;;;;;;4942476;28;20199;-71
2023/05/28 07:42:51;;;;;;;5.40;2.50;;;18.20;71.70;;;;;;4940352;28;20574;-71
2023/05/28 07:45:16;;;;;;;4.93;2.53;;;18.30;68.40;;;;;;4942435;28;20223;-70
2023/05/28 07:47:42;;;;;;;6.53;2.70;;;18.40;68.20;;;;;;4941968;28;20567;-79
2023/05/28 07:50:09;;;;;;;3.77;3.00;;;18.40;69.00;;;;;;4947749;28;20302;-76
2023/05/28 07:52:34;;;;;;;4.13;2.60;;;18.40;67.30;;;;;;4944704;28;20316;-75
2023/05/28 07:55:03;;;;;;;4.20;2.47;;;18.40;65.70;;;;;;4952427;28;20722;-73
2023/05/28 07:57:29;;;;;;;2.87;2.67;;;18.50;66.20;;;;;;4946832;28;20206;-74
2023/05/28 07:59:55;;;;;;;5.30;2.63;;;18.40;66.10;;;;;;4943114;28;20219;-75
2023/05/28 08:02:20;;;;;;;6.20;2.47;;;18.40;65.50;;;;;;4955903;28;20204;-75
2023/05/28 08:04:46;;;;;;;3.60;2.17;;;18.50;64.80;;;;;;4950818;28;20224;-78
2023/05/28 08:07:12;;;;;;;3.43;2.70;;;18.50;67.30;;;;;;4938179;28;20207;-75
2023/05/28 08:09:38;;;;;;;4.57;2.30;;;18.50;66.30;;;;;;4958029;28;20666;-84
2023/05/28 08:12:04;;;;;;;5.70;2.30;;;18.50;64.40;;;;;;4952556;28;20206;-75
2023/05/28 08:14:30;;;;;;;2.80;2.33;;;18.70;63.70;;;;;;4958541;28;20222;-75
2023/05/28 08:16:58;;;;;;;4.53;2.57;;;18.80;63.60;;;;;;4957561;28;20193;-75
2023/05/28 08:19:30;;;;;;;4.37;2.23;;;18.80;63.80;;;;;;4951344;28;20243;-76
2023/05/28 08:21:55;;;;;;;4.47;2.63;;;18.80;63.10;;;;;;4954190;28;20204;-73
2023/05/28 08:24:21;;;;;;;6.80;2.20;;;18.70;62.00;;;;;;4959397;28;20273;-75
2023/05/28 08:26:46;;;;;;;2.00;1.90;;;19.00;62.70;;;;;;4961721;28;20215;-75
2023/05/28 08:29:12;;;;;;;3.93;2.60;;;19.10;62.70;;;;;;4961665;28;20219;-75
2023/05/28 08:31:38;;;;;;;4.07;2.20;;;19.20;61.60;;;;;;4962191;28;20207;-74
2023/05/28 08:34:03;;;;;;;2.20;1.70;;;19.20;62.90;;;;;;4961679;28;20218;-75
2023/05/28 08:36:31;;;;;;;2.70;2.50;;;19.30;61.20;;;;;;4957397;28;20208;-75
2023/05/28 08:38:56;;;;;;;4.70;2.00;;;19.20;60.30;;;;;;4960287;28;20262;-74
2023/05/28 08:41:23;;;;;;;2.83;2.50;;;19.20;60.10;;;;;;4956879;28;20243;-75
2023/05/28 08:43:49;;;;;;;3.53;2.07;;;19.20;60.10;;;;;;4961384;28;20255;-75
2023/05/28 08:46:15;;;;;;;3.93;1.97;;;19.20;59.90;;;;;;4961496;28;20214;-75
2023/05/28 08:48:42;;;;;;;5.13;2.33;;;19.20;59.80;;;;;;4944255;28;20200;-75
2023/05/28 08:51:08;;;;;;;5.63;2.77;;;19.30;58.80;;;;;;4961045;28;20227;-75
2023/05/28 08:53:40;;;;;;;5.17;2.53;;;19.50;57.90;;;;;;4960924;28;20366;-75
2023/05/28 08:56:08;;;;;;;3.40;2.77;;;19.50;56.90;;;;;;4961500;28;20553;-75
2023/05/28 08:58:36;;;;;;;5.17;3.13;;;19.40;56.60;;;;;;4960952;28;20286;-75
2023/05/28 09:01:06;;;;;;;3.60;2.27;;;19.30;58.70;;;;;;4959491;28;20262;-74
2023/05/28 09:03:32;;;;;;;3.63;2.60;;;19.50;58.20;;;;;;4956917;28;20749;-76
2023/05/28 09:05:58;;;;;;;4.33;2.43;;;19.60;58.10;;;;;;4961870;28;20215;-75
2023/05/28 09:08:23;;;;;;;6.20;2.77;;;19.40;57.20;;;;;;4942845;28;20208;-74
2023/05/28 09:10:49;;;;;;;4.67;2.53;;;19.50;58.60;;;;;;4956819;28;20201;-75
2023/05/28 09:13:19;;;;;;;3.07;1.90;;;19.70;58.00;;;;;;4962680;28;20200;-74
2023/05/28 09:15:50;;;;;;;3.90;2.87;;;19.90;55.40;;;;;;4962461;28;20258;-74
2023/05/28 09:18:20;;;;;;;5.30;2.50;;;20.00;55.10;;;;;;4953890;28;20230;-75
2023/05/28 09:20:45;;;;;;;2.77;2.50;;;20.00;55.10;;;;;;4942385;28;20270;-75
2023/05/28 09:23:11;;;;;;;4.10;2.43;;;20.00;55.80;;;;;;4962924;28;20343;-76
2023/05/28 09:25:38;;;;;;;3.87;2.37;;;20.20;55.10;;;;;;4962604;28;20257;-74
2023/05/28 09:28:03;;;;;;;3.17;1.97;;;20.20;54.80;;;;;;4961353;28;20197;-75
2023/05/28 09:30:35;;;;;;;2.73;2.00;;;20.20;54.30;;;;;;4961894;28;20223;-74
2023/05/28 09:33:05;;;;;;;3.37;1.80;;;20.30;53.70;;;;;;4934302;28;20201;-75
2023/05/28 09:35:31;;;;;;;3.27;2.10;;;20.30;55.30;;;;;;4960783;28;20685;-76
2023/05/28 09:38:08;;;;;;;3.87;2.70;;;20.40;55.30;;;;;;4961047;28;20650;-74
2023/05/28 09:40:42;;;;;;;6.13;2.63;;;20.40;54.40;;;;;;4959894;28;21058;-75
2023/05/28 09:43:09;;;;;;;4.13;2.33;;;20.60;53.70;;;;;;4960653;28;20660;-76
2023/05/28 09:45:34;;;;;;;2.13;1.93;;;20.90;53.70;;;;;;4960992;28;20315;-75
2023/05/28 09:48:00;;;;;;;3.47;2.33;;;21.00;52.80;;;;;;4958643;28;20284;-75
2023/05/28 09:50:26;;;;;;;5.07;2.57;;;20.80;53.80;;;;;;4956084;28;20265;-74
2023/05/28 09:52:56;;;;;;;4.23;2.57;;;20.70;53.60;;;;;;4960391;28;20205;-75
2023/05/28 09:55:24;;;;;;;3.40;2.40;;;20.60;54.20;;;;;;4960162;28;20205;-74
2023/05/28 09:58:03;;;;;;;3.77;1.90;;;20.80;52.70;;;;;;4960351;28;20564;-75
2023/05/28 10:00:54;;;;;;;3.43;2.03;;;20.90;52.00;;;;;;4960096;28;20212;-75
2023/05/28 10:03:35;;;;;;;4.10;2.30;;;21.10;51.10;;;;;;4937849;28;20209;-74
2023/05/28 10:06:06;;;;;;;3.47;1.93;;;21.10;51.60;;;;;;4955818;28;20959;-75
2023/05/28 10:08:39;;;;;;;2.53;2.13;;;21.20;51.30;;;;;;4959613;28;20227;-75
2023/05/28 10:11:10;;;;;;;3.73;2.47;;;21.00;51.20;;;;;;4959633;28;20549;-75
2023/05/28 10:13:36;;;;;;;6.43;2.53;;;21.00;53.30;;;;;;4956792;28;20801;-75
2023/05/28 10:16:03;;;;;;;2.83;2.27;;;21.20;53.20;;;;;;4959158;28;20263;-75
2023/05/28 10:18:29;;;;;;;2.00;1.83;;;21.40;50.90;;;;;;4959808;28;20228;-75
2023/05/28 10:20:55;;;;;;;3.37;2.07;;;21.40;50.70;;;;;;4958709;28;20671;-75
2023/05/28 10:23:22;;;;;;;5.37;2.50;;;21.50;50.40;;;;;;4959594;28;20229;-75
2023/05/28 10:25:49;;;;;;;3.07;2.30;;;21.60;50.80;;;;;;4958494;28;20237;-75
2023/05/28 10:28:15;;;;;;;3.60;2.60;;;21.80;51.00;;;;;;4950514;28;20336;-75
2023/05/28 10:30:41;;;;;;;26.43;17.07;;;21.90;49.40;;;;;;4959713;28;20201;-75
2023/05/28 10:33:14;;;;;;;6.33;4.40;;;22.00;48.00;;;;;;4959447;28;20215;-75
2023/05/28 10:35:58;;;;;;;5.27;3.00;;;21.80;47.70;;;;;;4959534;28;20212;-75
2023/05/28 10:38:24;;;;;;;3.87;2.40;;;21.90;48.10;;;;;;4958975;28;20213;-74
2023/05/28 10:40:50;;;;;;;7.00;2.73;;;21.90;48.00;;;;;;4959408;28;20719;-75
2023/05/28 10:43:45;;;;;;;3.60;2.20;;;21.80;48.80;;;;;;4959453;28;20214;-75
2023/05/28 10:46:22;;;;;;;3.57;1.83;;;21.70;48.40;;;;;;4959036;28;20246;-74
2023/05/28 10:49:12;;;;;;;6.83;2.30;;;21.80;50.30;;;;;;4959037;28;20204;-76
2023/05/28 10:51:59;;;;;;;4.30;2.80;;;22.00;48.40;;;;;;4958237;28;20216;-75
2023/05/28 10:54:37;;;;;;;6.03;3.40;;;22.10;48.50;;;;;;4956811;28;20297;-75
2023/05/28 10:57:06;;;;;;;3.43;2.60;;;22.20;48.50;;;;;;4954883;28;20290;-75
2023/05/28 10:59:51;;;;;;;3.33;2.03;;;22.20;47.40;;;;;;4958257;28;20204;-75
2023/05/28 11:02:26;;;;;;;2.97;2.30;;;22.50;47.50;;;;;;4954337;28;20256;-75
2023/05/28 11:04:53;;;;;;;4.63;2.33;;;22.70;49.20;;;;;;4954934;28;20649;-75
2023/05/28 11:07:20;;;;;;;5.00;2.80;;;22.90;48.20;;;;;;4954578;28;20213;-75
2023/05/28 11:09:51;;;;;;;4.80;2.30;;;23.00;46.20;;;;;;4958735;28;20209;-75
2023/05/28 11:12:19;;;;;;;3.50;2.77;;;23.10;46.10;;;;;;4958366;28;20220;-74
2023/05/28 11:14:44;;;;;;;2.97;2.20;;;22.70;45.10;;;;;;4952381;28;20193;-75
2023/05/28 11:17:13;;;;;;;3.38;2.60;;;22.90;46.10;;;;;;4958806;28;20626;-75
2023/05/28 11:19:46;;;;;;;4.33;2.10;;;23.20;46.50;;;;;;4958470;28;20221;-75
2023/05/28 11:22:13;;;;;;;5.70;2.92;;;23.50;45.40;;;;;;4954007;28;20705;-75
2023/05/28 11:24:52;;;;;;;5.32;1.95;;;23.70;45.00;;;;;;4946942;28;20198;-75
2023/05/28 11:27:18;;;;;;;4.15;1.90;;;23.70;44.80;;;;;;4947130;28;20198;-75
2023/05/28 11:29:43;;;;;;;4.30;2.63;;;23.60;44.80;;;;;;4948597;28;20197;-75
2023/05/28 11:32:09;;;;;;;4.63;2.50;;;24.00;46.30;;;;;;4947142;28;20194;-75
2023/05/28 11:34:37;;;;;;;4.30;2.80;;;24.10;43.20;;;;;;4939688;28;20206;-75
2023/05/28 11:37:06;;;;;;;3.90;2.00;;;24.30;46.50;;;;;;4948878;28;20285;-75
2023/05/28 11:39:35;;;;;;;4.13;2.10;;;24.40;45.10;;;;;;4948209;28;20202;-75
2023/05/28 11:42:00;;;;;;;3.92;2.30;;;24.30;43.70;;;;;;4949116;28;20308;-75
2023/05/28 11:44:26;;;;;;;4.00;2.30;;;24.50;42.40;;;;;;4946292;28;20317;-75
2023/05/28 11:46:54;;;;;;;6.00;2.00;;;24.40;42.30;;;;;;4950139;28;20313;-75
2023/05/28 11:49:20;;;;;;;3.35;2.70;;;24.60;43.30;;;;;;4955186;28;20203;-76
2023/05/28 11:51:46;;;;;;;3.08;1.95;;;24.60;44.60;;;;;;4958006;28;20203;-75
2023/05/28 11:54:12;;;;;;;2.92;1.65;;;24.80;42.10;;;;;;4958242;28;20238;-76
2023/05/28 11:56:37;;;;;;;2.50;2.30;;;24.80;42.40;;;;;;4956250;28;20199;-75
2023/05/28 11:59:02;;;;;;;4.30;2.53;;;24.90;41.00;;;;;;4957803;28;20291;-75
2023/05/28 12:01:34;;;;;;;2.45;2.20;;;25.10;40.90;;;;;;4957667;28;20219;-75
2023/05/28 12:04:06;;;;;;;3.83;2.33;;;25.10;40.40;;;;;;4958353;28;20253;-74
2023/05/28 12:06:33;;;;;;;3.03;2.22;;;25.20;40.00;;;;;;4951081;28;20217;-75
2023/05/28 12:09:08;;;;;;;2.47;2.28;;;25.10;39.30;;;;;;4958278;28;20213;-75
2023/05/28 12:11:34;;;;;;;2.08;1.80;;;25.10;40.00;;;;;;4953392;28;20201;-75
2023/05/28 12:14:11;;;;;;;4.50;2.22;;;25.40;40.60;;;;;;4945364;28;20687;-74
2023/05/28 12:16:47;;;;;;;2.47;2.22;;;25.70;41.10;;;;;;4949337;28;20213;-75
2023/05/28 12:19:16;;;;;;;3.53;2.60;;;25.90;40.10;;;;;;4945638;28;20266;-75
2023/05/28 12:21:43;;;;;;;4.40;2.50;;;26.20;37.10;;;;;;4947514;28;20295;-75
2023/05/28 12:24:15;;;;;;;4.28;3.03;;;26.20;39.30;;;;;;4947504;28;20299;-75
2023/05/28 12:26:43;;;;;;;2.92;2.53;;;26.00;39.70;;;;;;4947854;28;20228;-81
2023/05/28 12:29:09;;;;;;;5.68;2.33;;;25.80;39.10;;;;;;4948401;28;20206;-77
2023/05/28 12:31:35;;;;;;;4.25;2.28;;;26.00;38.00;;;;;;4957163;28;20216;-76
2023/05/28 12:34:01;;;;;;;8.02;2.67;;;25.10;37.50;;;;;;4957735;28;20213;-76
2023/05/28 12:36:27;;;;;;;3.08;2.78;;;25.30;38.30;;;;;;4956105;28;20199;-76
2023/05/28 12:38:52;;;;;;;4.20;2.70;;;25.50;40.40;;;;;;4946511;28;20661;-76
2023/05/28 12:41:18;;;;;;;3.70;2.50;;;25.60;38.80;;;;;;4955322;28;20221;-77
2023/05/28 12:43:44;;;;;;;2.90;2.22;;;25.60;38.20;;;;;;4957645;28;20757;-73
2023/05/28 12:46:10;;;;;;;4.97;2.20;;;25.80;45.00;;;;;;4956822;28;20219;-73